Coastal Carolina Regional Airport New Bern US
ICAO: KEWN
IATA: EWN
Category: Medium
Scheduled Services: Yes

Elevation: 18 ft
TransAlt. 18000 ft.

Airport Communications:
CHERRY POINT APP/DEP:119.35
ASOS:118.525
CLNC DEL:120.525
CTAF:124.25
GND:121.7
RALEIGH RDO:122.2
NEW BERN TWR:124.25

KEWN Zoom In..

If you have problems with the map follow the link
https://www.worldairports.se/pages/airport.php?
ICAO=KEWN

Runways:

(A) RW 04 length 6453 ft width 150 ft
ILS 110.50 / hdg 39

(B) RW 14 length 4000 ft width 150 ft
---- / hdg 136

(C) RW 22 length 6453 ft width 150 ft
---- / hdg 219

(D) RW 32 length 4000 ft width 150 ft
---- / hdg 316

Location; KEWN
Day. 14 / Time. 04.16 Zulu
* Altimeter: 29.74
* Temperature: 13° c. 55.4°f.
* Wind from: 040° Speed 03 kn.
Dewpoint: 12° c.
Visibility: 1 m.
Clouds: Overcast 300 ft.
Conditions: Mist.

KEWN 140416Z AUTO 04003KT 1 1/4SM BR OVC003 13/12 A2974 RMK AO2 RAE16 P0000 T01280122


Wind From 040°
Speed 03 kn.

 
 
jpsmedia worldairports.se 2019   terms of use